Terminal Aerodrome Forecast
Issued by NWS

Home | Current Version | Previous Version | Text Only | Print | Product List | Glossary On
Versions: 1 2 3 4 5 6 7 8 9 10 11 12 13
481
FTUS42 KTAE 091120
TAFABY
TAF
KABY 091120Z 0912/1012 26012G16KT P6SM SCT050
     FM091500 28016G26KT P6SM BKN050
     FM100000 28010KT P6SM SCT040=

USA.gov is the U.S. government's official web portal to all federal, state and local government web resources and services.